Terminal Aerodrome Forecast
Issued by NWS Louisville, KY

Home | Current Version | Previous Version | Text Only | Print | Product List | Glossary On
Versions: 1 2 3 4 5 6 7 8 9 10 11 12 13 14 15 16 17
000
FTUS43 KLMK 242300
TAFBWG
TAF
KBWG 242320Z 2500/2524 24008KT P6SM VCSH SCT025 BKN035
     FM250600 26006KT P6SM BKN025
     FM251700 22007KT P6SM SCT025=

USA.gov is the U.S. government's official web portal to all federal, state and local government web resources and services.